Westfield, MA

6:03 AM EST on December 09, 2016 (GMT -0500)
Westfield | | Change Station

Elev 262 ft 42.13 °N, 72.79 °W | Updated 161 days ago

Cloudy
Cloudy
77 °F
Feels Like 77 °F
N
10
Wind Variable Wind from South
Gusts 16 mph

Today
High -- | Low -- °F
--% Chance of Precip.
Yesterday
High -- | Low -- °F
Precip. -- in
Pressure 29.94 in
Visibility 10.0 miles
Clouds Mostly Cloudy 4200 ft
Dew Point 58 °F
Humidity 53%
Rainfall in
Snow Depth Not available.
7:08 AM 4:19 PM
Waxing Gibbous, 73% visible
METAR KBAF 091053Z AUTO 30008G18KT 260V330 10SM BKN042 M01/M07 A2992 RMK AO2 SLP138 T10061067
Pressure 29.94 in
Visibility 10.0 miles
Clouds Mostly Cloudy 4200 ft
Dew Point 58 °F
Humidity 53%
Rainfall in
Snow Depth Not available.
7:08 AM 4:19 PM
Waxing Gibbous, 73% visible
METAR KBAF 091053Z AUTO 30008G18KT 260V330 10SM BKN042 M01/M07 A2992 RMK AO2 SLP138 T10061067

10-Day Weather Forecast

Almanac

Astronomy

Dec. 09, 2016 Rise Set
Actual Time
Civil Twilight
Nautical Twilight
Astronomical Twilight
Moon
Length of Visible Light
Length of Day
Tomorrow will be .
, % of the Moon is Illuminated

Today's Extremes

State Highs State Lows

Community

WunderPhotos

Upload Photos

1,956,378 photos uploaded!

WunderBlog® & News

Nearby

Air Quality

  Air Quality AQ Index Pollutant
Not available.

Snow Depth

Station Depth Elevation

Earthquake Activity

City Distance Mag. Time & Date
Minimum magnitude displayed is 2.5.

Coastal Water Temperatures

Place Temperature

Stations

Nearby Weather Stations

Station Location Temp. Windchill Dew Point Humidity Wind Precip. Elev Updated Type
                   

Watches & Warnings

There are currently no watches in effect.